createdAt,value
2022-08-29T00:00:25.879Z,88.32
2022-08-29T00:03:08.980Z,88.34
2022-08-29T00:05:40.091Z,88.37
2022-08-29T00:08:10.705Z,88.43
2022-08-29T00:10:40.086Z,88.29
2022-08-29T00:13:10.158Z,88.13
2022-08-29T00:15:45.140Z,88.04
2022-08-29T00:18:16.450Z,88.10
2022-08-29T00:20:45.862Z,88.24
2022-08-29T00:23:14.319Z,88.31
2022-08-29T00:25:42.483Z,88.40
2022-08-29T00:28:10.967Z,88.59
2022-08-29T00:30:40.210Z,88.71
2022-08-29T00:33:09.529Z,88.40
2022-08-29T00:35:40.474Z,88.50
2022-08-29T00:38:11.169Z,88.61
2022-08-29T00:40:47.880Z,88.38
2022-08-29T00:43:24.904Z,88.50
2022-08-29T00:46:39.120Z,88.56
2022-08-29T00:49:12.019Z,88.43
2022-08-29T00:51:41.559Z,88.69
2022-08-29T00:54:12.011Z,88.73
2022-08-29T00:56:41.933Z,88.96
2022-08-29T00:59:20.525Z,88.96
2022-08-29T01:01:48.786Z,89.06
2022-08-29T01:04:23.591Z,89.10
2022-08-29T01:06:54.201Z,89.03
2022-08-29T01:09:24.275Z,89.01
2022-08-29T01:12:11.998Z,88.97
2022-08-29T01:14:45.961Z,88.90
2022-08-29T01:17:18.263Z,88.94
2022-08-29T01:19:54.992Z,88.86
2022-08-29T01:23:03.349Z,88.62
2022-08-29T01:25:37.016Z,88.85
2022-08-29T01:28:15.389Z,88.87
2022-08-29T01:31:05.261Z,89.08
2022-08-29T01:33:50.725Z,89.16
2022-08-29T01:36:32.830Z,89.62
2022-08-29T01:39:01.184Z,89.87
2022-08-29T01:41:30.478Z,89.98
2022-08-29T01:43:58.597Z,90.24
2022-08-29T01:46:34.991Z,90.43
2022-08-29T01:49:09.005Z,90.57
2022-08-29T01:51:37.859Z,90.68
2022-08-29T01:54:07.590Z,90.79
2022-08-29T01:56:42.245Z,91.01
2022-08-29T01:59:14.407Z,91.09
2022-08-29T02:01:52.494Z,91.29
2022-08-29T02:04:21.291Z,91.06
2022-08-29T02:06:49.578Z,91.33
2022-08-29T02:09:18.178Z,91.46
2022-08-29T02:11:46.656Z,91.09
2022-08-29T02:14:19.446Z,91.46
2022-08-29T02:16:48.274Z,91.64
2022-08-29T02:19:17.503Z,91.42
2022-08-29T02:21:45.922Z,91.65
2022-08-29T02:24:25.590Z,91.42
2022-08-29T02:26:56.198Z,91.53
2022-08-29T02:29:26.691Z,91.59
2022-08-29T02:32:09.126Z,91.12
2022-08-29T02:34:38.030Z,91.49
2022-08-29T02:37:06.412Z,91.75
2022-08-29T02:39:35.178Z,91.30
2022-08-29T02:42:13.061Z,91.02
2022-08-29T02:44:40.950Z,91.22
2022-08-29T02:47:09.728Z,91.02
2022-08-29T02:49:39.617Z,91.24
2022-08-29T02:52:08.776Z,91.60
2022-08-29T02:54:37.564Z,91.78
2022-08-29T02:57:06.291Z,91.96
2022-08-29T02:59:34.280Z,91.94
2022-08-29T03:02:02.922Z,91.83
2022-08-29T03:04:31.430Z,91.92
2022-08-29T03:06:59.430Z,92.12
2022-08-29T03:09:27.555Z,92.13
2022-08-29T03:11:56.650Z,92.05
2022-08-29T03:14:25.586Z,92.16
2022-08-29T03:16:53.818Z,91.98
2022-08-29T03:19:23.063Z,92.32
2022-08-29T03:21:51.347Z,92.46
2022-08-29T03:24:26.916Z,92.58
2022-08-29T03:26:56.770Z,92.43
2022-08-29T03:29:25.827Z,92.27
2022-08-29T03:31:58.681Z,92.36
2022-08-29T03:34:28.496Z,92.11
2022-08-29T03:36:56.555Z,92.56
2022-08-29T03:39:25.496Z,92.65
2022-08-29T03:41:53.991Z,92.61
2022-08-29T03:44:22.695Z,92.59
2022-08-29T03:46:50.519Z,92.46
2022-08-29T03:49:18.706Z,92.28
2022-08-29T03:51:46.664Z,91.98
2022-08-29T03:54:14.582Z,91.47
2022-08-29T03:56:42.938Z,91.20
2022-08-29T03:59:11.468Z,90.79
2022-08-29T04:01:39.692Z,90.66
2022-08-29T04:04:08.754Z,90.70
2022-08-29T04:06:37.095Z,90.79
2022-08-29T04:09:05.714Z,91.03
2022-08-29T04:11:33.813Z,91.03
2022-08-29T04:14:02.363Z,90.62
2022-08-29T04:16:31.363Z,90.64
2022-08-29T04:18:59.984Z,90.31
2022-08-29T04:21:28.110Z,90.32
2022-08-29T04:23:57.872Z,89.44
2022-08-29T04:26:36.550Z,89.53
2022-08-29T04:29:06.982Z,89.39
2022-08-29T04:31:36.719Z,89.93
2022-08-29T04:34:07.049Z,89.39
2022-08-29T04:36:36.558Z,89.63
2022-08-29T04:39:05.880Z,89.56
2022-08-29T04:41:33.963Z,89.72
2022-08-29T04:44:04.058Z,89.96
2022-08-29T04:46:32.879Z,89.49
2022-08-29T04:49:04.226Z,89.82
2022-08-29T04:51:34.743Z,90.46
2022-08-29T04:54:05.224Z,90.58
2022-08-29T04:56:34.796Z,90.76
2022-08-29T04:59:03.230Z,90.87
2022-08-29T05:01:32.138Z,90.88
2022-08-29T05:04:00.300Z,90.84
2022-08-29T05:06:28.986Z,91.07
2022-08-29T05:08:59.673Z,90.93
2022-08-29T05:11:31.815Z,91.09
2022-08-29T05:14:00.689Z,91.05
2022-08-29T05:16:34.556Z,90.98
2022-08-29T05:19:06.479Z,90.93
2022-08-29T05:21:38.112Z,90.58
2022-08-29T05:24:10.054Z,90.50
2022-08-29T05:26:44.478Z,90.30
2022-08-29T05:29:13.400Z,90.53
2022-08-29T05:31:44.679Z,90.23
2022-08-29T05:34:34.456Z,90.58
2022-08-29T05:37:09.493Z,90.46
2022-08-29T05:39:39.272Z,90.53
2022-08-29T05:42:08.954Z,90.57
2022-08-29T05:44:37.195Z,90.86
2022-08-29T05:47:07.924Z,91.25
2022-08-29T05:49:41.457Z,90.78
2022-08-29T05:52:10.997Z,90.58
2022-08-29T05:54:41.692Z,90.37
2022-08-29T05:57:16.631Z,90.61
2022-08-29T05:59:48.773Z,90.60
2022-08-29T06:02:18.394Z,90.17
2022-08-29T06:04:46.714Z,90.42
2022-08-29T06:07:15.269Z,90.36
2022-08-29T06:09:44.282Z,90.26
2022-08-29T06:12:15.179Z,90.26
2022-08-29T06:14:50.244Z,90.01
2022-08-29T06:17:20.191Z,90.02
2022-08-29T06:19:52.306Z,90.16
2022-08-29T06:22:21.097Z,90.10
2022-08-29T06:24:57.518Z,89.66
2022-08-29T06:27:25.956Z,89.67
2022-08-29T06:29:54.419Z,89.67
2022-08-29T06:32:22.391Z,89.88
2022-08-29T06:34:50.561Z,89.89
2022-08-29T06:37:19.004Z,89.82
2022-08-29T06:39:46.938Z,89.70
2022-08-29T06:42:15.113Z,89.35
2022-08-29T06:44:44.575Z,89.14
2022-08-29T06:47:13.138Z,89.05
2022-08-29T06:49:41.705Z,89.04
2022-08-29T06:52:09.743Z,88.97
2022-08-29T06:54:38.634Z,89.27
2022-08-29T06:57:06.882Z,89.40
2022-08-29T06:59:35.594Z,89.13
2022-08-29T07:02:03.851Z,89.08
2022-08-29T07:04:31.889Z,88.43
2022-08-29T07:07:00.314Z,88.29
2022-08-29T07:09:31.352Z,88.39
2022-08-29T07:11:59.251Z,88.41
2022-08-29T07:14:27.663Z,88.25
2022-08-29T07:16:56.799Z,88.05
2022-08-29T07:19:24.760Z,87.65
2022-08-29T07:21:57.980Z,87.48
2022-08-29T07:24:27.190Z,87.35
2022-08-29T07:26:55.328Z,87.50
2022-08-29T07:29:23.694Z,87.46
2022-08-29T07:31:52.287Z,87.46
2022-08-29T07:34:20.914Z,87.35
2022-08-29T07:36:49.207Z,87.38
2022-08-29T07:39:19.376Z,87.62
2022-08-29T07:41:47.601Z,87.68
2022-08-29T07:44:17.216Z,87.88
2022-08-29T07:46:45.628Z,87.93
2022-08-29T07:49:14.033Z,88.34
2022-08-29T07:51:44.231Z,88.46
2022-08-29T07:54:17.108Z,88.79
2022-08-29T07:56:46.943Z,89.16
2022-08-29T07:59:15.546Z,88.67
2022-08-29T08:01:44.554Z,88.92
2022-08-29T08:04:27.622Z,88.68
2022-08-29T08:06:57.349Z,88.80
2022-08-29T08:09:25.363Z,89.07
2022-08-29T08:11:53.648Z,89.13
2022-08-29T08:14:21.656Z,88.75
2022-08-29T08:17:04.135Z,88.58
2022-08-29T08:19:33.496Z,88.35
2022-08-29T08:22:01.432Z,88.21
2022-08-29T08:24:29.824Z,88.33
2022-08-29T08:26:58.214Z,87.97
2022-08-29T08:29:26.497Z,87.70
2022-08-29T08:52:42.791Z,84.26
2022-08-29T08:55:53.104Z,83.54
2022-08-29T08:58:55.102Z,82.77
2022-08-29T09:01:29.261Z,82.02
2022-08-29T09:04:27.199Z,81.44
2022-08-29T09:07:14.959Z,80.99
2022-08-29T09:10:02.854Z,81.49
2022-08-29T09:13:00.854Z,80.92
2022-08-29T09:15:40.452Z,81.14
2022-08-29T09:18:21.846Z,79.87
2022-08-29T09:20:52.058Z,79.57
2022-08-29T09:23:44.435Z,79.74
2022-08-29T09:26:19.911Z,78.97
2022-08-29T09:28:49.704Z,78.00
2022-08-29T09:31:33.297Z,77.34
2022-08-29T09:34:12.093Z,77.65
2022-08-29T09:36:40.554Z,76.80
2022-08-29T09:39:18.985Z,77.03
2022-08-29T09:41:52.456Z,75.98
2022-08-29T09:44:35.578Z,76.51
2022-08-29T09:47:09.743Z,76.50
2022-08-29T09:49:42.186Z,76.24
2022-08-29T09:52:24.177Z,76.09
2022-08-29T09:54:52.433Z,75.38
2022-08-29T09:57:25.012Z,74.88
2022-08-29T10:00:13.865Z,74.96
2022-08-29T10:02:47.895Z,75.04
2022-08-29T10:05:29.149Z,74.05
2022-08-29T10:07:58.269Z,73.40
2022-08-29T10:10:33.193Z,72.45
2022-08-29T10:13:21.354Z,70.80
2022-08-29T10:15:59.537Z,72.25
2022-08-29T10:18:43.479Z,71.80
2022-08-29T10:21:14.377Z,71.09
2022-08-29T10:24:08.007Z,69.85
2022-08-29T10:26:55.204Z,69.89
2022-08-29T10:29:36.418Z,69.40
2022-08-29T10:32:47.670Z,68.82
2022-08-29T10:35:23.225Z,68.03
2022-08-29T10:37:57.120Z,68.36
2022-08-29T10:40:50.720Z,68.67
2022-08-29T10:43:30.946Z,68.73
2022-08-29T10:46:06.419Z,68.24
2022-08-29T10:49:09.046Z,67.57
2022-08-29T10:51:44.153Z,67.88
2022-08-29T10:54:50.052Z,67.06
2022-08-29T10:57:40.343Z,66.26
2022-08-29T11:00:15.100Z,65.92
2022-08-29T11:03:10.515Z,64.73
2022-08-29T11:05:49.746Z,65.68
2022-08-29T11:08:23.064Z,64.73
2022-08-29T11:10:52.670Z,65.49
2022-08-29T11:13:32.943Z,62.93
2022-08-29T11:16:17.742Z,62.58
2022-08-29T11:18:55.310Z,63.31
2022-08-29T11:21:35.316Z,62.16
2022-08-29T11:24:05.746Z,61.92
2022-08-29T11:26:40.155Z,60.46
2022-08-29T11:29:24.728Z,58.99
2022-08-29T11:32:15.251Z,59.53
2022-08-29T11:34:54.074Z,58.12
2022-08-29T11:37:42.439Z,57.99
2022-08-29T11:41:26.304Z,58.05
2022-08-29T11:43:39.256Z,57.48
2022-08-29T11:46:10.721Z,57.55
2022-08-29T11:48:42.022Z,56.65
2022-08-29T11:51:36.107Z,57.53
2022-08-29T11:54:24.909Z,57.83
2022-08-29T11:57:02.638Z,57.72
2022-08-29T11:59:49.373Z,57.01
2022-08-29T12:02:30.520Z,58.15
2022-08-29T12:05:16.772Z,57.53
2022-08-29T12:08:36.003Z,56.48
2022-08-29T12:11:06.874Z,56.52
2022-08-29T12:13:44.148Z,56.00
2022-08-29T12:16:14.697Z,55.58
2022-08-29T12:18:47.023Z,55.61
2022-08-29T12:21:48.885Z,54.60
2022-08-29T12:24:40.114Z,54.70
2022-08-29T12:27:54.700Z,54.82
2022-08-29T12:30:22.769Z,53.77
2022-08-29T12:33:08.183Z,53.27
2022-08-29T12:35:50.366Z,52.44
2022-08-29T12:38:50.162Z,52.46
2022-08-29T12:41:42.338Z,53.89
2022-08-29T12:44:17.142Z,52.70
2022-08-29T12:46:48.680Z,51.57
2022-08-29T12:49:21.237Z,50.40
2022-08-29T12:51:59.042Z,50.88
2022-08-29T12:54:32.832Z,50.23
2022-08-29T12:57:02.894Z,48.91
2022-08-29T12:59:31.060Z,50.42
2022-08-29T13:01:59.741Z,50.36
2022-08-29T13:04:36.556Z,50.33
2022-08-29T13:07:07.996Z,49.60
2022-08-29T13:09:41.844Z,50.39
2022-08-29T13:12:18.148Z,50.06
2022-08-29T13:14:52.552Z,49.38
2022-08-29T13:17:30.745Z,49.83
2022-08-29T13:20:49.151Z,48.86
2022-08-29T13:23:28.019Z,49.93
2022-08-29T13:25:59.288Z,49.83
2022-08-29T13:28:45.575Z,49.23
2022-08-29T13:31:19.731Z,49.43
2022-08-29T13:33:50.940Z,50.14
2022-08-29T13:36:31.061Z,49.60
2022-08-29T13:39:18.322Z,49.09
2022-08-29T13:42:10.404Z,48.81
2022-08-29T13:44:59.130Z,47.96
2022-08-29T13:47:33.229Z,47.59
2022-08-29T13:50:06.110Z,47.97
2022-08-29T13:52:34.569Z,47.92
2022-08-29T13:55:03.459Z,48.29
2022-08-29T13:57:31.781Z,48.41
2022-08-29T14:00:01.234Z,48.13
2022-08-29T14:02:34.664Z,47.93
2022-08-29T14:05:03.004Z,47.20
2022-08-29T14:07:31.824Z,47.43
2022-08-29T14:10:01.350Z,47.20
2022-08-29T14:12:33.836Z,47.31
2022-08-29T14:15:08.994Z,47.48
2022-08-29T14:17:41.964Z,47.23
2022-08-29T14:20:10.738Z,46.92
2022-08-29T14:22:38.999Z,47.07
2022-08-29T14:25:08.364Z,47.13
2022-08-29T14:27:37.252Z,46.50
2022-08-29T14:30:07.159Z,47.36
2022-08-29T14:32:35.933Z,47.81
2022-08-29T14:35:05.382Z,48.40
2022-08-29T14:37:34.866Z,47.55
2022-08-29T14:40:05.416Z,47.02
2022-08-29T14:42:33.401Z,47.31
2022-08-29T14:45:01.713Z,47.75
2022-08-29T14:47:30.188Z,48.06
2022-08-29T14:49:58.165Z,47.35
2022-08-29T14:52:26.583Z,47.47
2022-08-29T14:54:57.375Z,47.79
2022-08-29T14:57:27.497Z,48.30
2022-08-29T14:59:55.471Z,49.22
2022-08-29T15:02:23.658Z,48.93
2022-08-29T15:04:51.562Z,48.93
2022-08-29T15:07:19.680Z,49.23
2022-08-29T15:09:48.024Z,49.79
2022-08-29T15:12:18.061Z,49.85
2022-08-29T15:14:46.407Z,50.14
2022-08-29T15:17:15.485Z,50.11
2022-08-29T15:22:32.636Z,50.07
2022-08-29T15:25:01.138Z,50.03
2022-08-29T15:27:30.082Z,49.42
2022-08-29T15:29:59.752Z,49.76
2022-08-29T15:32:27.792Z,50.30
2022-08-29T15:34:55.570Z,50.36
2022-08-29T15:37:23.692Z,50.38
2022-08-29T15:39:54.552Z,49.92
2022-08-29T15:42:29.899Z,49.44
2022-08-29T15:45:07.987Z,48.95
2022-08-29T15:47:36.605Z,48.66
2022-08-29T15:50:08.410Z,48.73
2022-08-29T15:52:37.583Z,48.67
2022-08-29T15:55:07.366Z,48.89
2022-08-29T15:57:39.577Z,49.18
2022-08-29T16:00:30.610Z,49.51
2022-08-29T16:03:02.828Z,49.08
2022-08-29T16:05:32.678Z,49.59
2022-08-29T16:08:02.380Z,49.60
2022-08-29T16:10:31.739Z,49.95
2022-08-29T16:13:20.489Z,50.25
2022-08-29T16:15:50.308Z,50.43
2022-08-29T16:18:18.689Z,50.64
2022-08-29T16:20:46.675Z,50.34
2022-08-29T16:23:15.527Z,50.50
2022-08-29T16:25:44.322Z,50.63
2022-08-29T16:28:13.528Z,50.94
2022-08-29T16:30:46.078Z,51.20
2022-08-29T16:33:14.758Z,51.53
2022-08-29T16:35:43.283Z,51.65
2022-08-29T16:38:11.936Z,51.71
2022-08-29T16:40:40.403Z,51.97
2022-08-29T16:43:08.598Z,51.86
2022-08-29T16:45:36.877Z,52.20
2022-08-29T16:48:15.726Z,52.21
2022-08-29T16:50:45.209Z,52.75
2022-08-29T16:53:13.421Z,52.96
2022-08-29T16:55:41.202Z,53.26
2022-08-29T16:58:27.996Z,53.41
2022-08-29T17:00:55.995Z,53.72
2022-08-29T17:03:24.133Z,54.20
2022-08-29T17:05:52.212Z,54.41
2022-08-29T17:08:20.193Z,55.05
2022-08-29T17:10:48.058Z,55.15
2022-08-29T17:13:15.846Z,55.64
2022-08-29T17:15:43.894Z,55.66
2022-08-29T17:18:12.002Z,56.17
2022-08-29T17:20:41.573Z,56.38
2022-08-29T17:23:15.960Z,56.72
2022-08-29T17:25:43.992Z,57.64
2022-08-29T17:28:18.071Z,57.63
2022-08-29T17:30:49.127Z,58.76
2022-08-29T17:33:18.873Z,58.49
2022-08-29T17:35:47.400Z,58.62
2022-08-29T17:38:16.237Z,58.96
2022-08-29T17:40:44.650Z,58.93
2022-08-29T17:43:13.259Z,59.42
2022-08-29T17:45:42.007Z,59.68
2022-08-29T17:48:10.178Z,60.11
2022-08-29T17:50:39.260Z,60.14
2022-08-29T17:53:07.530Z,60.39
2022-08-29T17:55:35.421Z,60.69
2022-08-29T17:58:03.589Z,61.33
2022-08-29T18:00:32.320Z,61.50
2022-08-29T18:03:00.311Z,61.82
2022-08-29T18:05:29.176Z,62.11
2022-08-29T18:07:57.725Z,62.85
2022-08-29T18:10:25.762Z,63.22
2022-08-29T18:12:53.793Z,63.42
2022-08-29T18:15:22.247Z,63.67
2022-08-29T18:17:51.577Z,63.73
2022-08-29T18:20:22.079Z,63.98
2022-08-29T18:22:50.402Z,64.42
2022-08-29T18:25:22.702Z,64.63
2022-08-29T18:27:51.093Z,64.90
2022-08-29T18:30:20.529Z,65.33
2022-08-29T18:32:48.986Z,65.51
2022-08-29T18:35:17.299Z,65.78
2022-08-29T18:37:45.225Z,66.23
2022-08-29T18:40:13.700Z,66.47
2022-08-29T18:42:41.839Z,66.81
2022-08-29T18:45:11.418Z,66.87
2022-08-29T18:47:40.704Z,67.12
2022-08-29T18:50:28.642Z,67.52
2022-08-29T18:52:57.361Z,67.75
2022-08-29T18:55:27.936Z,68.26
2022-08-29T18:57:56.398Z,69.03
2022-08-29T19:00:25.246Z,69.01
2022-08-29T19:02:55.232Z,69.21
2022-08-29T19:05:25.059Z,69.80
2022-08-29T19:07:53.484Z,69.81
2022-08-29T19:10:22.784Z,69.91
2022-08-29T19:12:50.723Z,70.03
2022-08-29T19:15:21.484Z,70.01
2022-08-29T19:17:49.919Z,70.53
2022-08-29T19:20:39.670Z,70.52
2022-08-29T19:23:09.205Z,70.74
2022-08-29T19:25:38.507Z,70.94
2022-08-29T19:28:08.554Z,71.13
2022-08-29T19:30:38.322Z,71.10
2022-08-29T19:33:08.338Z,71.00
2022-08-29T19:35:39.085Z,71.12
2022-08-29T19:38:08.265Z,71.11
2022-08-29T19:40:39.238Z,71.69
2022-08-29T19:43:13.667Z,71.77
2022-08-29T19:48:33.558Z,71.78
2022-08-29T19:51:02.199Z,71.64
2022-08-29T19:53:30.279Z,72.20
2022-08-29T19:55:58.597Z,72.12
2022-08-29T19:58:31.599Z,72.22
2022-08-29T20:01:02.119Z,72.53
2022-08-29T20:03:31.220Z,72.41
2022-08-29T20:06:00.322Z,72.60
2022-08-29T20:08:31.429Z,72.69
2022-08-29T20:10:59.893Z,73.09
2022-08-29T20:13:31.575Z,73.40
2022-08-29T20:16:09.233Z,73.30
2022-08-29T20:18:38.368Z,73.27
2022-08-29T20:21:06.535Z,73.21
2022-08-29T20:23:34.686Z,73.73
2022-08-29T20:26:03.157Z,73.73
2022-08-29T20:28:31.759Z,74.00
2022-08-29T20:31:01.180Z,73.96
2022-08-29T20:33:29.249Z,74.22
2022-08-29T20:36:16.084Z,74.08
2022-08-29T20:38:44.715Z,74.26
2022-08-29T20:41:13.492Z,74.41
2022-08-29T20:43:44.132Z,74.75
2022-08-29T20:46:12.859Z,74.70
2022-08-29T20:48:41.110Z,74.44
2022-08-29T20:51:10.405Z,74.87
2022-08-29T20:53:40.555Z,74.89
2022-08-29T20:56:09.418Z,75.07
2022-08-29T20:58:37.621Z,75.07
2022-08-29T21:01:05.926Z,75.45
2022-08-29T21:03:53.089Z,75.24
2022-08-29T21:06:22.158Z,75.62
2022-08-29T21:08:50.788Z,75.60
2022-08-29T21:11:19.242Z,76.01
2022-08-29T21:13:49.060Z,75.98
2022-08-29T21:16:21.067Z,76.17
2022-08-29T21:18:53.538Z,76.45
2022-08-29T21:21:24.826Z,76.57
2022-08-29T21:23:53.647Z,76.78
2022-08-29T21:26:21.647Z,76.84
2022-08-29T21:28:49.871Z,76.71
2022-08-29T21:31:19.605Z,76.56
2022-08-29T21:33:48.254Z,76.68
2022-08-29T21:36:24.615Z,76.80
2022-08-29T21:38:55.252Z,77.37
2022-08-29T21:41:24.684Z,77.44
2022-08-29T21:43:52.757Z,77.57
2022-08-29T21:46:27.416Z,77.43
2022-08-29T21:48:57.499Z,77.02
2022-08-29T21:51:27.111Z,77.87
2022-08-29T21:53:57.266Z,77.98
2022-08-29T21:56:28.247Z,77.84
2022-08-29T21:58:57.277Z,77.96
2022-08-29T22:01:30.150Z,77.83
2022-08-29T22:04:01.178Z,77.86
2022-08-29T22:06:29.997Z,77.95
2022-08-29T22:08:59.578Z,78.39
2022-08-29T22:11:37.681Z,78.19
2022-08-29T22:14:08.073Z,77.80
2022-08-29T22:16:37.160Z,78.47
2022-08-29T22:19:10.055Z,78.30
2022-08-29T22:21:41.721Z,77.92
2022-08-29T22:24:10.973Z,78.22
2022-08-29T22:26:40.941Z,77.96
2022-08-29T22:29:12.029Z,78.60
2022-08-29T22:31:42.677Z,78.58
2022-08-29T22:34:11.896Z,78.38
2022-08-29T22:36:39.815Z,78.92
2022-08-29T22:39:08.259Z,79.04
2022-08-29T22:41:36.538Z,79.02
2022-08-29T22:46:54.695Z,78.60
2022-08-29T22:49:22.719Z,78.74
2022-08-29T22:51:53.195Z,78.66
2022-08-29T22:54:36.773Z,79.07
2022-08-29T22:57:09.079Z,78.70
2022-08-29T22:59:38.107Z,79.00
2022-08-29T23:02:06.600Z,78.97
2022-08-29T23:04:35.978Z,79.19
2022-08-29T23:07:06.141Z,79.52
2022-08-29T23:09:35.164Z,79.45
2022-08-29T23:12:10.983Z,79.22
2022-08-29T23:14:42.411Z,79.36
2022-08-29T23:17:10.732Z,79.51
2022-08-29T23:19:41.222Z,79.65
2022-08-29T23:22:11.269Z,79.14
2022-08-29T23:24:41.605Z,79.99
2022-08-29T23:27:30.064Z,80.14
2022-08-29T23:29:58.990Z,79.81
2022-08-29T23:32:34.253Z,80.30
2022-08-29T23:35:03.863Z,80.50
2022-08-29T23:37:31.939Z,80.51
2022-08-29T23:40:01.483Z,80.14
2022-08-29T23:42:30.559Z,80.38
2022-08-29T23:44:58.656Z,80.34
2022-08-29T23:47:26.557Z,80.66
2022-08-29T23:49:54.739Z,80.54
2022-08-29T23:52:23.145Z,80.73
2022-08-29T23:54:51.098Z,80.46
2022-08-29T23:57:19.156Z,80.72
